Time;durP1;ratioP1;P1;durP2;ratioP2;P2;SDS_P1;SDS_P2;PMS_P1;PMS_P2;Temp;Humidity;BMP_temperature;BMP_pressure;BME280_temperature;BME280_humidity;BME280_pressure;Samples;Min_cycle;Max_cycle;Signal;HPM_P1;HPM_P2
2021/12/10 00:00:31;;;;;;;;;;;;;;;-0.51;57.47;93917.50;5026079;28;19925;-69
2021/12/10 00:02:56;;;;;;;;;;;;;;;-0.36;56.82;93914.34;5024377;28;20751;-69
2021/12/10 00:05:23;;;;;;;;;;;;;;;-0.51;58.57;93898.41;5018668;28;19970;-69
2021/12/10 00:07:49;;;;;;;;;;;;;;;-0.91;57.14;93895.28;5024069;28;19929;-69
2021/12/10 00:10:16;;;;;;;;;;;;;;;-0.31;58.81;93886.78;5026532;28;19921;-69
2021/12/10 00:12:45;;;;;;;;;;;;;;;0.48;58.80;93871.94;5019526;28;20008;-69
2021/12/10 00:15:10;;;;;;;;;;;;;;;-0.05;57.56;93874.66;5025936;28;19999;-70
2021/12/10 00:17:36;;;;;;;;;;;;;;;-0.03;59.40;93877.13;5025049;28;19952;-69
2021/12/10 00:20:02;;;;;;;;;;;;;;;0.59;60.38;93874.28;5025999;28;20412;-69
2021/12/10 00:22:35;;;;;;;;;;;;;;;0.93;58.67;93867.34;5023372;28;19932;-69
2021/12/10 00:25:00;;;;;;;;;;;;;;;1.07;56.99;93860.66;5024760;28;20007;-69
2021/12/10 00:27:31;;;;;;;;;;;;;;;1.33;55.38;93862.31;5025412;28;20342;-69
2021/12/10 00:30:04;;;;;;;;;;;;;;;1.14;53.40;93847.72;5025845;28;19967;-68
2021/12/10 00:32:34;;;;;;;;;;;;;;;1.29;54.72;93847.09;5024234;28;19921;-68
2021/12/10 00:34:59;;;;;;;;;;;;;;;0.82;57.07;93850.13;5024074;28;20456;-69
2021/12/10 00:37:25;;;;;;;;;;;;;;;0.95;53.24;93843.59;5024084;28;20051;-69
2021/12/10 00:39:56;;;;;;;;;;;;;;;0.51;54.30;93842.84;5025396;28;19917;-69
2021/12/10 00:42:24;;;;;;;;;;;;;;;0.65;54.17;93844.03;5012508;28;19924;-68
2021/12/10 00:44:49;;;;;;;;;;;;;;;-0.61;59.32;93851.44;5025157;28;20098;-69
2021/12/10 00:47:14;;;;;;;;;;;;;;;-1.22;58.98;93847.59;5025579;28;20394;-69
2021/12/10 00:49:39;;;;;;;;;;;;;;;-0.41;58.56;93843.41;5023968;28;19913;-69
2021/12/10 00:52:05;;;;;;;;;;;;;;;0.35;55.21;93838.38;5021025;28;19926;-69
2021/12/10 00:54:30;;;;;;;;;;;;;;;0.33;56.64;93843.78;5018241;28;19917;-69
2021/12/10 00:56:56;;;;;;;;;;;;;;;-0.64;59.55;93844.69;5025356;28;19967;-69
2021/12/10 00:59:21;;;;;;;;;;;;;;;-0.28;58.60;93838.56;5022248;28;20402;-69
2021/12/10 01:01:46;;;;;;;;;;;;;;;0.55;56.29;93831.06;5020358;28;19921;-69
2021/12/10 01:04:13;;;;;;;;;;;;;;;0.92;55.22;93833.44;5023335;28;19936;-69
2021/12/10 01:06:39;;;;;;;;;;;;;;;0.56;56.49;93832.72;5016045;28;19976;-69
2021/12/10 01:09:09;;;;;;;;;;;;;;;1.18;57.08;93819.38;5023293;28;19929;-69
2021/12/10 01:11:36;;;;;;;;;;;;;;;0.97;53.95;93821.50;5022134;28;20019;-69
2021/12/10 01:14:11;;;;;;;;;;;;;;;1.19;57.31;93813.16;5023939;28;19923;-68
2021/12/10 01:25:05;;;;;;;;;;;;;;;1.63;55.34;93793.63;5007416;28;20181;-69
2021/12/10 01:27:32;;;;;;;;;;;;;;;1.87;51.78;93789.28;5023605;28;20277;-69
2021/12/10 01:29:59;;;;;;;;;;;;;;;1.44;51.27;93779.03;5023423;28;19959;-69
2021/12/10 01:32:25;;;;;;;;;;;;;;;1.61;56.27;93764.13;5024497;28;20359;-71
2021/12/10 01:34:51;;;;;;;;;;;;;;;1.75;55.10;93755.56;5023052;28;20080;-69
2021/12/10 01:37:16;;;;;;;;;;;;;;;1.35;53.55;93742.34;5024067;28;20068;-69
2021/12/10 01:39:41;;;;;;;;;;;;;;;1.67;55.38;93745.06;5022555;28;20001;-69
2021/12/10 01:42:35;;;;;;;;;;;;;;;1.76;53.57;93738.00;5024744;28;20023;-69
2021/12/10 01:45:01;;;;;;;;;;;;;;;0.32;55.77;93740.03;5011679;28;20001;-69
2021/12/10 01:47:30;;;;;;;;;;;;;;;1.13;53.46;93736.00;5022931;28;20493;-69
2021/12/10 01:49:56;;;;;;;;;;;;;;;1.48;56.07;93733.13;5024779;28;20486;-69
2021/12/10 01:52:21;;;;;;;;;;;;;;;1.02;57.28;93738.94;5016763;28;20009;-69
2021/12/10 01:54:48;;;;;;;;;;;;;;;1.31;57.19;93733.19;5024034;28;20478;-69
2021/12/10 01:57:13;;;;;;;;;;;;;;;0.73;53.62;93728.75;5023059;28;20015;-69
2021/12/10 01:59:38;;;;;;;;;;;;;;;0.55;55.63;93730.75;5022769;28;20342;-69
2021/12/10 02:02:10;;;;;;;;;;;;;;;0.89;52.36;93723.72;5024379;28;20501;-69
2021/12/10 02:04:36;;;;;;;;;;;;;;;1.03;53.46;93720.44;5010355;28;19925;-69
2021/12/10 02:07:02;;;;;;;;;;;;;;;0.25;57.44;93723.34;5010499;28;19921;-69
2021/12/10 02:09:27;;;;;;;;;;;;;;;0.94;58.21;93713.53;5022689;28;20393;-69
2021/12/10 02:11:53;;;;;;;;;;;;;;;0.95;53.88;93710.75;5021552;28;20424;-69
2021/12/10 02:14:18;;;;;;;;;;;;;;;0.37;55.25;93707.31;5024262;28;20488;-69
2021/12/10 02:16:43;;;;;;;;;;;;;;;0.95;54.88;93709.94;5010273;28;20033;-69
2021/12/10 02:19:09;;;;;;;;;;;;;;;0.59;56.47;93709.28;5022666;28;19990;-69
2021/12/10 02:21:36;;;;;;;;;;;;;;;0.95;58.30;93699.44;5022359;28;20009;-68
2021/12/10 02:24:01;;;;;;;;;;;;;;;0.80;52.64;93697.50;5010210;28;20001;-69
2021/12/10 02:26:28;;;;;;;;;;;;;;;-0.82;56.29;93706.22;5022122;28;20508;-69
2021/12/10 02:28:53;;;;;;;;;;;;;;;-0.07;55.45;93694.28;5024232;28;20371;-69
2021/12/10 02:31:18;;;;;;;;;;;;;;;-1.19;60.36;93689.78;5009489;28;20013;-69
2021/12/10 02:33:43;;;;;;;;;;;;;;;-1.27;57.53;93697.56;5013724;28;20040;-69
2021/12/10 02:36:12;;;;;;;;;;;;;;;-1.26;58.40;93686.13;5022238;28;19917;-69
2021/12/10 02:38:41;;;;;;;;;;;;;;;-0.49;60.33;93664.56;5018402;28;20092;-69
2021/12/10 02:41:06;;;;;;;;;;;;;;;-0.16;58.11;93661.25;5012598;28;20133;-69
2021/12/10 02:43:31;;;;;;;;;;;;;;;0.11;54.37;93651.50;5014952;28;19993;-69
2021/12/10 02:45:56;;;;;;;;;;;;;;;-0.37;56.74;93653.81;5022622;28;19994;-69
2021/12/10 02:48:23;;;;;;;;;;;;;;;-1.26;58.40;93658.22;5018724;28;19921;-69
2021/12/10 02:50:48;;;;;;;;;;;;;;;-0.64;60.61;93655.69;5010675;28;20035;-69
2021/12/10 02:53:16;;;;;;;;;;;;;;;-1.19;56.40;93658.44;5018135;28;20355;-69
2021/12/10 02:55:41;;;;;;;;;;;;;;;-0.65;58.82;93651.44;5009638;28;19921;-69
2021/12/10 02:58:09;;;;;;;;;;;;;;;0.41;56.75;93643.19;5018634;28;19948;-69
2021/12/10 03:00:37;;;;;;;;;;;;;;;-0.24;54.23;93646.34;5023763;28;19975;-69
2021/12/10 03:03:02;;;;;;;;;;;;;;;-0.99;61.34;93638.16;5017519;28;20458;-69
2021/12/10 03:05:27;;;;;;;;;;;;;;;-0.15;60.18;93634.09;5023349;28;19937;-69
2021/12/10 03:07:53;;;;;;;;;;;;;;;0.37;58.63;93624.34;5018262;28;20386;-69
2021/12/10 03:10:20;;;;;;;;;;;;;;;0.57;59.42;93616.97;5016540;28;20302;-69
2021/12/10 03:12:45;;;;;;;;;;;;;;;0.76;58.92;93609.75;5021473;28;19921;-69
2021/12/10 03:15:10;;;;;;;;;;;;;;;1.06;58.27;93609.19;5011483;28;20298;-69
2021/12/10 03:17:36;;;;;;;;;;;;;;;1.14;57.81;93593.44;5017730;28;20008;-69
2021/12/10 03:20:02;;;;;;;;;;;;;;;1.01;56.22;93593.97;5015049;28;19921;-69
2021/12/10 03:22:27;;;;;;;;;;;;;;;1.13;53.94;93593.63;5020224;28;19925;-69
2021/12/10 03:24:52;;;;;;;;;;;;;;;1.16;56.36;93583.59;5017622;28;19925;-69
2021/12/10 03:27:18;;;;;;;;;;;;;;;0.71;56.38;93580.59;5018083;28;20331;-69
2021/12/10 03:29:44;;;;;;;;;;;;;;;0.96;57.98;93572.72;5022446;28;20387;-69
2021/12/10 03:32:10;;;;;;;;;;;;;;;0.97;58.12;93567.31;5023004;28;19921;-69
2021/12/10 03:34:35;;;;;;;;;;;;;;;0.93;57.66;93562.56;5024069;28;20067;-69
2021/12/10 03:37:01;;;;;;;;;;;;;;;0.99;56.70;93556.66;5026915;28;20008;-69
2021/12/10 03:39:26;;;;;;;;;;;;;;;0.98;57.92;93555.00;5018737;28;20349;-69
2021/12/10 03:41:52;;;;;;;;;;;;;;;0.94;57.03;93549.28;5021464;28;20414;-69
2021/12/10 03:44:17;;;;;;;;;;;;;;;0.92;57.92;93546.00;5026455;28;19929;-69
2021/12/10 03:46:42;;;;;;;;;;;;;;;0.85;57.62;93535.38;5026461;28;19928;-69
2021/12/10 03:49:08;;;;;;;;;;;;;;;0.81;57.19;93533.25;5026802;28;19975;-69
2021/12/10 03:51:33;;;;;;;;;;;;;;;0.63;57.96;93541.34;5025182;28;19917;-69
2021/12/10 03:53:58;;;;;;;;;;;;;;;0.62;58.20;93532.69;5026256;28;19925;-69
2021/12/10 03:56:24;;;;;;;;;;;;;;;0.51;59.05;93536.44;5026555;28;20436;-69
2021/12/10 03:58:49;;;;;;;;;;;;;;;0.62;58.25;93524.81;5026371;28;20298;-69
2021/12/10 04:01:15;;;;;;;;;;;;;;;0.49;58.09;93525.34;5026554;28;20083;-69
2021/12/10 04:03:41;;;;;;;;;;;;;;;0.36;58.68;93532.88;5026225;28;19917;-69
2021/12/10 04:06:06;;;;;;;;;;;;;;;0.47;59.98;93527.28;5024936;28;19986;-69
2021/12/10 04:08:31;;;;;;;;;;;;;;;0.45;57.17;93530.06;5026016;28;20218;-69
2021/12/10 04:10:56;;;;;;;;;;;;;;;0.56;58.16;93534.16;5025856;28;19989;-69
2021/12/10 04:13:22;;;;;;;;;;;;;;;0.60;54.56;93524.16;5025334;28;19973;-69
2021/12/10 04:15:48;;;;;;;;;;;;;;;0.57;58.66;93516.63;5025546;28;20522;-69
2021/12/10 04:18:13;;;;;;;;;;;;;;;0.39;55.94;93511.59;5025032;28;19972;-69
2021/12/10 04:20:38;;;;;;;;;;;;;;;0.32;53.22;93509.66;5024690;28;20465;-69
2021/12/10 04:23:05;;;;;;;;;;;;;;;0.57;54.34;93511.41;5017072;28;20355;-69
2021/12/10 04:25:30;;;;;;;;;;;;;;;0.62;58.00;93509.09;5021284;28;20461;-69
2021/12/10 04:27:57;;;;;;;;;;;;;;;0.59;54.20;93496.34;5025368;28;21531;-69
2021/12/10 04:30:23;;;;;;;;;;;;;;;0.79;56.97;93490.72;5024877;28;20023;-69
2021/12/10 04:32:48;;;;;;;;;;;;;;;0.94;53.39;93488.19;5024366;28;20314;-69
2021/12/10 04:35:14;;;;;;;;;;;;;;;0.91;52.76;93488.53;5017419;28;19921;-69
2021/12/10 04:37:39;;;;;;;;;;;;;;;1.05;54.88;93490.44;5016721;28;20396;-69
2021/12/10 04:40:06;;;;;;;;;;;;;;;0.89;57.90;93477.41;5016158;28;19925;-69
2021/12/10 04:42:31;;;;;;;;;;;;;;;1.10;56.73;93475.00;5025599;28;20099;-69
2021/12/10 04:44:56;;;;;;;;;;;;;;;1.11;55.90;93475.81;5019367;28;20505;-69
2021/12/10 04:47:22;;;;;;;;;;;;;;;1.08;56.88;93471.75;5014685;28;19960;-69
2021/12/10 04:49:47;;;;;;;;;;;;;;;0.99;54.50;93462.31;5025831;28;19989;-69
2021/12/10 04:52:12;;;;;;;;;;;;;;;1.24;53.92;93464.78;5025128;28;19993;-69
2021/12/10 04:54:38;;;;;;;;;;;;;;;1.27;54.32;93453.97;5024937;28;19973;-69
2021/12/10 04:57:03;;;;;;;;;;;;;;;1.35;55.76;93448.66;5023974;28;20462;-69
2021/12/10 04:59:29;;;;;;;;;;;;;;;1.07;50.98;93458.81;5023712;28;20529;-69
2021/12/10 05:01:56;;;;;;;;;;;;;;;0.81;55.12;93455.50;5024235;28;20342;-69
2021/12/10 05:04:21;;;;;;;;;;;;;;;1.07;54.99;93441.28;5023503;28;20000;-69
2021/12/10 05:06:46;;;;;;;;;;;;;;;1.10;53.06;93442.75;5024813;28;19949;-69
2021/12/10 05:09:12;;;;;;;;;;;;;;;1.40;53.39;93444.69;5025348;28;20357;-69
2021/12/10 05:11:37;;;;;;;;;;;;;;;1.20;53.09;93443.31;5022474;28;19990;-69
2021/12/10 05:14:02;;;;;;;;;;;;;;;0.91;52.28;93443.97;5023553;28;20085;-69
2021/12/10 05:16:28;;;;;;;;;;;;;;;0.95;53.44;93435.63;5024881;28;19989;-69
2021/12/10 05:18:59;;;;;;;;;;;;;;;1.03;52.96;93440.00;5023357;28;19990;-69
2021/12/10 05:21:25;;;;;;;;;;;;;;;1.21;53.65;93433.66;5023728;28;19976;-69
2021/12/10 05:23:50;;;;;;;;;;;;;;;1.10;54.19;93434.88;5008906;28;20434;-69
2021/12/10 05:26:15;;;;;;;;;;;;;;;1.11;54.59;93428.66;5020221;28;20005;-69
2021/12/10 05:28:40;;;;;;;;;;;;;;;1.22;55.63;93419.56;5024521;28;20005;-69
2021/12/10 05:31:06;;;;;;;;;;;;;;;1.20;56.18;93421.56;5024738;28;20572;-69
2021/12/10 05:33:31;;;;;;;;;;;;;;;1.23;54.76;93410.72;5023687;28;19997;-69
2021/12/10 05:36:01;;;;;;;;;;;;;;;1.24;55.30;93396.63;5023530;28;19989;-69
2021/12/10 05:38:26;;;;;;;;;;;;;;;1.02;55.25;93393.81;5014397;28;19976;-69
2021/12/10 05:40:52;;;;;;;;;;;;;;;1.13;56.64;93392.59;5017218;28;20631;-69
2021/12/10 05:43:17;;;;;;;;;;;;;;;1.06;57.29;93384.59;5017373;28;19994;-69
2021/12/10 05:45:43;;;;;;;;;;;;;;;0.88;54.20;93381.47;5025253;28;20178;-69
2021/12/10 05:48:08;;;;;;;;;;;;;;;0.92;57.12;93383.53;5012577;28;20480;-69
2021/12/10 05:50:33;;;;;;;;;;;;;;;0.94;56.42;93368.47;5023346;28;19974;-69
2021/12/10 05:52:59;;;;;;;;;;;;;;;0.77;55.03;93370.38;5012033;28;20435;-69
2021/12/10 05:55:24;;;;;;;;;;;;;;;0.73;56.22;93356.00;5019116;28;19993;-69
2021/12/10 05:57:49;;;;;;;;;;;;;;;0.95;56.33;93350.94;5015211;28;19973;-69
2021/12/10 06:00:19;;;;;;;;;;;;;;;0.75;56.65;93354.00;5024573;28;20492;-69
2021/12/10 06:02:44;;;;;;;;;;;;;;;0.71;55.38;93345.69;5023096;28;20013;-69
2021/12/10 06:05:12;;;;;;;;;;;;;;;0.88;56.74;93336.94;5023173;28;20522;-69
2021/12/10 06:07:38;;;;;;;;;;;;;;;0.87;55.66;93336.09;5020223;28;20481;-69
2021/12/10 06:10:04;;;;;;;;;;;;;;;0.95;56.75;93337.84;5010567;28;20258;-69
2021/12/10 06:12:29;;;;;;;;;;;;;;;0.82;55.76;93331.38;5005977;28;20048;-69
2021/12/10 06:14:54;;;;;;;;;;;;;;;0.88;55.31;93323.81;5008752;28;19994;-69
2021/12/10 06:17:19;;;;;;;;;;;;;;;1.01;55.39;93325.84;5008057;28;20020;-69
2021/12/10 06:19:45;;;;;;;;;;;;;;;0.98;53.65;93322.59;5019161;28;20218;-69
2021/12/10 06:22:10;;;;;;;;;;;;;;;0.92;55.34;93320.66;5022788;28;20307;-69
2021/12/10 06:24:35;;;;;;;;;;;;;;;0.90;56.60;93311.34;5021951;28;20282;-69
2021/12/10 06:27:01;;;;;;;;;;;;;;;0.90;54.33;93309.56;5022511;28;20405;-69
2021/12/10 06:29:27;;;;;;;;;;;;;;;1.05;53.86;93306.97;5010617;28;20395;-69
2021/12/10 06:31:52;;;;;;;;;;;;;;;1.07;54.89;93301.56;5017218;28;20363;-69
2021/12/10 06:34:18;;;;;;;;;;;;;;;0.81;52.88;93293.06;5022852;28;20016;-69
2021/12/10 06:36:43;;;;;;;;;;;;;;;0.68;55.73;93298.09;5012672;28;19994;-69
2021/12/10 06:39:08;;;;;;;;;;;;;;;0.85;52.53;93299.59;5021962;28;20054;-69
2021/12/10 06:41:33;;;;;;;;;;;;;;;0.74;56.18;93286.88;5023075;28;20012;-69
2021/12/10 06:44:01;;;;;;;;;;;;;;;0.80;55.31;93286.22;5017525;28;19998;-69
2021/12/10 06:46:26;;;;;;;;;;;;;;;0.78;54.75;93272.44;5017677;28;19921;-69
2021/12/10 06:48:53;;;;;;;;;;;;;;;0.69;53.59;93273.50;5017798;28;19943;-69
2021/12/10 06:51:19;;;;;;;;;;;;;;;0.56;54.77;93272.28;5011717;28;20497;-69
2021/12/10 06:53:44;;;;;;;;;;;;;;;0.83;56.40;93274.56;5013222;28;19969;-69
2021/12/10 06:56:09;;;;;;;;;;;;;;;0.75;54.34;93272.00;5014507;28;20447;-69
2021/12/10 06:58:35;;;;;;;;;;;;;;;0.68;57.40;93266.66;5006776;28;20000;-70
2021/12/10 07:01:09;;;;;;;;;;;;;;;0.69;55.79;93270.88;5011420;28;20384;-69
2021/12/10 07:03:34;;;;;;;;;;;;;;;0.62;54.72;93268.16;5009248;28;19932;-69
2021/12/10 07:06:00;;;;;;;;;;;;;;;0.58;53.46;93272.91;5008672;28;19925;-69
2021/12/10 07:08:25;;;;;;;;;;;;;;;0.59;55.44;93268.50;5015639;28;20020;-69
2021/12/10 07:10:51;;;;;;;;;;;;;;;0.56;55.87;93264.44;5021491;28;19987;-69
2021/12/10 07:13:16;;;;;;;;;;;;;;;0.37;51.00;93270.13;5015285;28;19997;-69
2021/12/10 07:15:43;;;;;;;;;;;;;;;0.64;56.28;93266.16;5016303;28;19925;-69
2021/12/10 07:18:08;;;;;;;;;;;;;;;0.53;55.87;93274.41;5017775;28;19943;-69
2021/12/10 07:20:33;;;;;;;;;;;;;;;0.63;52.27;93268.97;5021815;28;19917;-69
2021/12/10 07:22:59;;;;;;;;;;;;;;;0.64;56.20;93266.16;5022808;28;20405;-69
2021/12/10 07:25:24;;;;;;;;;;;;;;;0.58;53.33;93266.88;5021514;28;19929;-69
2021/12/10 07:27:49;;;;;;;;;;;;;;;0.71;54.27;93271.50;5023033;28;20425;-69
2021/12/10 07:30:14;;;;;;;;;;;;;;;0.89;56.37;93267.81;5023040;28;20031;-69
2021/12/10 07:32:40;;;;;;;;;;;;;;;0.66;56.77;93263.38;5022658;28;19925;-70
2021/12/10 07:35:05;;;;;;;;;;;;;;;0.75;52.36;93264.94;5022554;28;20317;-69
2021/12/10 07:37:31;;;;;;;;;;;;;;;0.72;56.34;93260.88;5020657;28;19989;-67
2021/12/10 07:39:56;;;;;;;;;;;;;;;1.00;55.20;93253.47;5021190;28;20004;-66
2021/12/10 07:42:21;;;;;;;;;;;;;;;0.99;54.72;93250.03;5023240;28;19970;-68
2021/12/10 07:44:46;;;;;;;;;;;;;;;0.82;53.07;93258.00;5022649;28;20389;-68
2021/12/10 07:47:13;;;;;;;;;;;;;;;0.78;54.99;93255.94;5022459;28;20039;-67
2021/12/10 07:49:38;;;;;;;;;;;;;;;0.90;52.72;93251.09;5021199;28;19970;-68
2021/12/10 07:52:14;;;;;;;;;;;;;;;0.92;52.97;93254.34;5015706;28;20566;-69
2021/12/10 07:54:40;;;;;;;;;;;;;;;0.59;54.46;93255.41;5021469;28;19973;-68
2021/12/10 07:57:05;;;;;;;;;;;;;;;0.92;55.40;93256.97;5021015;28;20427;-68
2021/12/10 07:59:30;;;;;;;;;;;;;;;0.64;51.04;93249.63;5022347;28;20338;-68
2021/12/10 08:01:55;;;;;;;;;;;;;;;0.58;52.46;93245.94;5022540;28;19980;-68
2021/12/10 08:04:21;;;;;;;;;;;;;;;0.57;53.42;93241.66;5022038;28;20002;-68
2021/12/10 08:06:46;;;;;;;;;;;;;;;0.67;55.74;93244.88;5020146;28;20000;-68
2021/12/10 08:09:11;;;;;;;;;;;;;;;0.77;55.52;93243.81;5022087;28;19985;-68
2021/12/10 08:11:37;;;;;;;;;;;;;;;0.57;53.67;93236.44;5020666;28;19994;-68
2021/12/10 08:14:02;;;;;;;;;;;;;;;0.49;52.37;93237.31;5018590;28;19965;-68
2021/12/10 08:16:27;;;;;;;;;;;;;;;0.52;50.83;93236.13;5012010;28;20432;-67
2021/12/10 08:18:52;;;;;;;;;;;;;;;0.49;53.97;93234.69;5007814;28;19996;-68
2021/12/10 08:21:18;;;;;;;;;;;;;;;0.47;53.02;93239.28;5006491;28;19978;-68
2021/12/10 08:23:43;;;;;;;;;;;;;;;0.66;53.26;93231.94;5009273;28;19993;-68
2021/12/10 08:26:09;;;;;;;;;;;;;;;0.61;54.37;93231.66;5013267;28;20047;-68
2021/12/10 08:28:35;;;;;;;;;;;;;;;0.78;53.84;93230.53;5010872;28;20056;-68
2021/12/10 08:31:00;;;;;;;;;;;;;;;0.64;49.79;93228.69;5009155;28;19997;-68
2021/12/10 08:33:26;;;;;;;;;;;;;;;0.54;53.26;93224.50;5008695;28;20131;-68
2021/12/10 08:35:53;;;;;;;;;;;;;;;0.34;51.33;93221.50;5016729;28;19990;-68
2021/12/10 08:38:18;;;;;;;;;;;;;;;0.39;50.70;93227.06;5007021;28;19989;-68
2021/12/10 08:40:48;;;;;;;;;;;;;;;0.40;55.31;93227.84;5006739;28;20076;-68
2021/12/10 08:43:13;;;;;;;;;;;;;;;0.61;51.05;93218.56;5021168;28;20494;-68
2021/12/10 08:45:39;;;;;;;;;;;;;;;0.51;54.68;93219.59;5012430;28;20000;-68
2021/12/10 08:48:04;;;;;;;;;;;;;;;0.81;52.21;93211.03;5017936;28;20451;-68
2021/12/10 08:50:30;;;;;;;;;;;;;;;0.77;53.56;93210.59;5010020;28;20071;-68
2021/12/10 08:52:57;;;;;;;;;;;;;;;0.96;53.45;93213.72;5007695;28;19978;-68
2021/12/10 08:55:22;;;;;;;;;;;;;;;0.75;52.40;93206.50;5020343;28;19994;-68
2021/12/10 08:57:48;;;;;;;;;;;;;;;1.14;51.96;93212.56;5009861;28;20051;-68
2021/12/10 09:00:13;;;;;;;;;;;;;;;0.64;51.04;93216.41;5009557;28;20059;-68
2021/12/10 09:02:39;;;;;;;;;;;;;;;0.92;51.92;93215.06;4991882;28;20484;-69
2021/12/10 09:05:05;;;;;;;;;;;;;;;1.26;48.01;93223.44;5009786;28;20037;-68
2021/12/10 09:07:31;;;;;;;;;;;;;;;1.25;48.51;93219.97;5010996;28;20105;-68
2021/12/10 09:09:56;;;;;;;;;;;;;;;1.27;52.12;93223.25;5011450;28;19978;-68
2021/12/10 09:12:22;;;;;;;;;;;;;;;1.46;50.78;93210.59;5015904;28;19990;-68
2021/12/10 09:14:50;;;;;;;;;;;;;;;1.29;51.92;93210.75;5009097;28;20000;-67
2021/12/10 09:17:20;;;;;;;;;;;;;;;1.53;50.50;93214.16;5017600;28;19977;-68
2021/12/10 09:19:45;;;;;;;;;;;;;;;1.66;52.89;93207.47;5009161;28;20076;-68
2021/12/10 09:22:10;;;;;;;;;;;;;;;1.41;51.13;93207.69;5017870;28;20056;-68
2021/12/10 09:24:36;;;;;;;;;;;;;;;1.41;52.24;93207.69;5008600;28;20044;-67
2021/12/10 09:27:01;;;;;;;;;;;;;;;1.45;51.14;93214.22;5014064;28;20421;-68
2021/12/10 09:29:28;;;;;;;;;;;;;;;1.64;52.90;93217.31;5009244;28;20439;-69
2021/12/10 09:31:53;;;;;;;;;;;;;;;1.71;51.59;93212.97;5008697;28;20036;-69
2021/12/10 09:34:18;;;;;;;;;;;;;;;2.04;48.38;93204.69;5011493;28;20414;-69
2021/12/10 09:36:44;;;;;;;;;;;;;;;1.79;46.80;93199.75;5019841;28;20536;-69
2021/12/10 09:39:09;;;;;;;;;;;;;;;1.93;49.07;93203.38;5013581;28;20335;-68
2021/12/10 09:41:35;;;;;;;;;;;;;;;2.05;49.41;93197.66;5009597;28;20084;-69
2021/12/10 09:44:00;;;;;;;;;;;;;;;2.09;48.16;93183.97;5017076;28;20029;-70
2021/12/10 09:46:25;;;;;;;;;;;;;;;2.07;47.50;93188.56;5018152;28;20254;-69
2021/12/10 09:48:51;;;;;;;;;;;;;;;2.27;49.16;93193.22;5016676;28;19996;-69
2021/12/10 09:51:18;;;;;;;;;;;;;;;2.26;46.37;93189.00;5015729;28;19993;-69
2021/12/10 09:53:44;;;;;;;;;;;;;;;2.41;50.71;93190.75;5015702;28;20543;-69
2021/12/10 09:56:09;;;;;;;;;;;;;;;2.21;48.03;93170.38;5015201;28;19996;-70
2021/12/10 09:58:35;;;;;;;;;;;;;;;2.06;45.83;93179.09;5016134;28;19973;-70
2021/12/10 10:01:03;;;;;;;;;;;;;;;2.36;48.83;93168.50;5019795;28;19973;-68
2021/12/10 10:03:30;;;;;;;;;;;;;;;2.13;44.51;93169.47;5020664;28;20004;-70
2021/12/10 10:05:55;;;;;;;;;;;;;;;2.25;50.02;93161.91;5018156;28;20032;-69
2021/12/10 10:08:22;;;;;;;;;;;;;;;2.16;51.25;93167.47;5005603;28;20001;-69
2021/12/10 10:10:50;;;;;;;;;;;;;;;2.32;51.07;93156.75;5002829;28;20490;-69
2021/12/10 10:13:20;;;;;;;;;;;;;;;2.28;45.73;93158.09;5018309;28;20044;-69
2021/12/10 10:15:47;;;;;;;;;;;;;;;2.57;48.60;93147.66;5010957;28;20060;-69
2021/12/10 10:18:12;;;;;;;;;;;;;;;2.46;48.16;93156.84;5012292;28;19969;-69
2021/12/10 10:20:38;;;;;;;;;;;;;;;2.59;47.33;93154.34;5008835;28;19999;-69
2021/12/10 10:23:04;;;;;;;;;;;;;;;2.55;49.21;93155.72;5005696;28;20338;-69
2021/12/10 10:25:34;;;;;;;;;;;;;;;2.59;50.39;93158.78;5013492;28;20006;-70
2021/12/10 10:27:59;;;;;;;;;;;;;;;2.65;49.27;93156.22;5011107;28;19997;-69
2021/12/10 10:30:28;;;;;;;;;;;;;;;3.07;48.13;93160.78;5016779;28;20476;-69
2021/12/10 10:32:53;;;;;;;;;;;;;;;3.10;49.51;93147.25;5014093;28;19990;-70
2021/12/10 10:35:22;;;;;;;;;;;;;;;3.04;48.43;93148.03;5007655;28;20072;-71
2021/12/10 10:37:47;;;;;;;;;;;;;;;3.12;49.55;93145.25;5013763;28;19974;-70
2021/12/10 10:40:15;;;;;;;;;;;;;;;3.19;48.13;93131.34;5017458;28;20498;-69
2021/12/10 10:42:40;;;;;;;;;;;;;;;3.23;49.23;93130.75;5006792;28;20091;-71
2021/12/10 10:45:07;;;;;;;;;;;;;;;2.98;47.86;93125.13;5011885;28;20077;-70
2021/12/10 10:47:32;;;;;;;;;;;;;;;3.00;48.31;93115.25;5016540;28;20000;-70
2021/12/10 10:49:58;;;;;;;;;;;;;;;2.79;46.32;93116.91;5010278;28;19978;-69
2021/12/10 10:52:34;;;;;;;;;;;;;;;2.93;49.79;93120.47;5018564;28;20431;-71
2021/12/10 10:55:20;;;;;;;;;;;;;;;2.72;47.81;93118.69;5019402;28;19997;-69
2021/12/10 10:57:50;;;;;;;;;;;;;;;2.47;45.17;93117.28;5015992;28;19977;-69
2021/12/10 11:00:18;;;;;;;;;;;;;;;2.40;46.97;93111.16;5016708;28;20293;-69
2021/12/10 11:02:51;;;;;;;;;;;;;;;2.56;46.62;93110.09;5015873;28;20193;-68
2021/12/10 11:05:17;;;;;;;;;;;;;;;2.67;49.36;93115.81;5021791;28;20438;-68
2021/12/10 11:07:52;;;;;;;;;;;;;;;2.76;48.00;93104.16;5007614;28;20072;-70
2021/12/10 11:10:31;;;;;;;;;;;;;;;3.07;49.46;93095.06;4999781;28;19988;-69
2021/12/10 11:13:07;;;;;;;;;;;;;;;3.17;49.48;93102.59;5009236;28;20506;-70
2021/12/10 11:15:32;;;;;;;;;;;;;;;3.30;49.11;93097.41;5011984;28;19993;-68
2021/12/10 11:17:57;;;;;;;;;;;;;;;3.46;47.69;93086.78;5015794;28;20374;-70
2021/12/10 11:20:25;;;;;;;;;;;;;;;3.67;49.22;93093.75;5011264;28;19993;-68
2021/12/10 11:22:51;;;;;;;;;;;;;;;3.89;48.07;93097.06;5014188;28;20001;-69
2021/12/10 11:25:18;;;;;;;;;;;;;;;3.84;48.40;93090.78;5019941;28;20052;-70
2021/12/10 11:27:43;;;;;;;;;;;;;;;4.14;47.92;93091.25;5005327;28;19994;-68
2021/12/10 11:30:22;;;;;;;;;;;;;;;3.93;44.20;93086.94;5011823;28;19976;-68
2021/12/10 11:33:01;;;;;;;;;;;;;;;4.00;44.02;93093.03;5008587;28;19994;-70
2021/12/10 11:35:26;;;;;;;;;;;;;;;3.83;47.72;93094.41;5019276;28;20043;-70
2021/12/10 11:37:54;;;;;;;;;;;;;;;4.14;46.91;93101.78;5018549;28;20008;-70
2021/12/10 11:40:20;;;;;;;;;;;;;;;4.02;41.36;93100.75;5022409;28;20421;-70
2021/12/10 11:42:48;;;;;;;;;;;;;;;4.16;46.55;93104.22;5021554;28;20028;-71
2021/12/10 11:45:33;;;;;;;;;;;;;;;4.12;44.70;93105.63;5022088;28;20081;-70
2021/12/10 11:48:08;;;;;;;;;;;;;;;4.14;46.03;93107.03;5021406;28;20425;-70
2021/12/10 11:50:34;;;;;;;;;;;;;;;4.31;47.04;93109.28;5015999;28;20052;-69
2021/12/10 11:53:04;;;;;;;;;;;;;;;4.34;43.54;93103.63;5012064;28;20071;-70
2021/12/10 11:55:29;;;;;;;;;;;;;;;4.31;47.17;93096.13;5017502;28;20741;-70
2021/12/10 11:57:54;;;;;;;;;;;;;;;4.25;46.18;93104.84;5006005;28;20077;-70
2021/12/10 12:00:24;;;;;;;;;;;;;;;4.10;46.29;93097.94;5013680;28;20497;-70
2021/12/10 12:02:50;;;;;;;;;;;;;;;4.36;45.57;93101.63;4992639;28;19993;-70
2021/12/10 12:05:20;;;;;;;;;;;;;;;4.03;48.48;93103.19;5015762;28;20002;-70
2021/12/10 12:07:46;;;;;;;;;;;;;;;4.01;44.61;93107.81;5018714;28;19997;-70
2021/12/10 12:10:23;;;;;;;;;;;;;;;4.06;45.24;93104.59;5020221;28;19973;-69
2021/12/10 12:12:55;;;;;;;;;;;;;;;4.04;45.57;93102.16;5013944;28;20666;-69
2021/12/10 12:15:21;;;;;;;;;;;;;;;3.86;43.36;93099.28;5014086;28;19997;-70
2021/12/10 12:17:47;;;;;;;;;;;;;;;3.53;43.58;93093.69;5020930;28;19969;-69
2021/12/10 12:20:22;;;;;;;;;;;;;;;3.45;44.55;93093.88;5012602;28;20395;-71
2021/12/10 12:25:52;;;;;;;;;;;;;;;3.58;46.10;93090.50;5012354;28;20473;-68
2021/12/10 12:28:17;;;;;;;;;;;;;;;3.10;42.41;93092.03;5019275;28;19993;-68
2021/12/10 12:30:58;;;;;;;;;;;;;;;3.34;47.61;93094.41;5008326;28;19977;-69
2021/12/10 12:33:25;;;;;;;;;;;;;;;3.43;46.35;93088.78;5019357;28;19980;-70
2021/12/10 12:35:51;;;;;;;;;;;;;;;3.70;45.20;93088.09;5013593;28;20302;-70
2021/12/10 12:38:20;;;;;;;;;;;;;;;3.61;48.09;93097.97;5005050;28;20020;-68
2021/12/10 12:40:45;;;;;;;;;;;;;;;3.69;45.21;93091.72;5000214;28;20012;-69
2021/12/10 12:43:11;;;;;;;;;;;;;;;3.62;45.83;93086.44;5018510;28;20514;-70
2021/12/10 12:45:37;;;;;;;;;;;;;;;3.52;46.24;93083.38;5016512;28;19989;-70
2021/12/10 12:48:09;;;;;;;;;;;;;;;3.77;43.33;93085.47;5020933;28;20001;-69
2021/12/10 12:50:34;;;;;;;;;;;;;;;3.85;45.24;93085.31;5015632;28;19970;-69
2021/12/10 12:53:07;;;;;;;;;;;;;;;3.91;45.48;93078.44;5016783;28;20310;-69
2021/12/10 12:55:44;;;;;;;;;;;;;;;3.98;45.63;93081.88;5019576;28;19997;-69
2021/12/10 12:58:09;;;;;;;;;;;;;;;3.68;47.15;93083.03;5022060;28;19973;-69
2021/12/10 13:00:34;;;;;;;;;;;;;;;3.59;44.73;93089.47;5022073;28;19996;-69
2021/12/10 13:03:01;;;;;;;;;;;;;;;3.83;48.57;93087.31;5018515;28;19993;-71